createdAt,value
2019-05-03T00:01:13.197Z,5.57
2019-05-03T00:03:43.230Z,5.83
2019-05-03T00:06:13.290Z,5.27
2019-05-03T00:08:43.233Z,6.80
2019-05-03T00:11:13.179Z,4.30
2019-05-03T00:13:43.102Z,4.90
2019-05-03T00:16:19.346Z,4.30
2019-05-03T00:18:49.274Z,3.73
2019-05-03T00:21:19.221Z,4.20
2019-05-03T00:23:49.160Z,4.33
2019-05-03T00:26:19.175Z,4.10
2019-05-03T00:28:49.101Z,5.57
2019-05-03T00:31:19.048Z,5.47
2019-05-03T00:33:51.740Z,5.00
2019-05-03T00:36:30.131Z,4.90
2019-05-03T00:39:12.647Z,4.07
2019-05-03T00:41:42.648Z,4.17
2019-05-03T00:44:13.509Z,5.60
2019-05-03T00:46:43.439Z,4.23
2019-05-03T00:49:13.379Z,4.63
2019-05-03T00:51:43.390Z,4.20
2019-05-03T00:54:13.360Z,4.70
2019-05-03T00:56:44.578Z,6.37
2019-05-03T00:59:14.587Z,5.10
2019-05-03T01:01:44.519Z,3.87
2019-05-03T01:04:14.511Z,4.70
2019-05-03T01:06:44.680Z,5.33
2019-05-03T01:09:18.751Z,3.87
2019-05-03T01:11:48.750Z,4.10
2019-05-03T01:14:18.691Z,5.63
2019-05-03T01:16:48.718Z,3.63
2019-05-03T01:19:18.613Z,4.33
2019-05-03T01:21:48.631Z,4.87
2019-05-03T01:24:18.625Z,5.10
2019-05-03T01:26:48.582Z,4.13
2019-05-03T01:29:18.554Z,4.27
2019-05-03T01:31:48.475Z,4.20
2019-05-03T01:34:18.429Z,4.60
2019-05-03T01:36:48.286Z,4.50
2019-05-03T01:39:18.219Z,5.47
2019-05-03T01:41:48.320Z,4.57
2019-05-03T01:44:18.290Z,4.30
2019-05-03T01:46:51.546Z,4.90
2019-05-03T01:49:32.181Z,4.47
2019-05-03T01:52:22.479Z,4.63
2019-05-03T01:54:52.421Z,4.53
2019-05-03T01:57:22.374Z,4.87
2019-05-03T01:59:52.306Z,4.17
2019-05-03T02:02:42.007Z,4.03
2019-05-03T02:05:32.013Z,4.77
2019-05-03T02:08:02.274Z,4.10
2019-05-03T02:10:33.189Z,4.30
2019-05-03T02:13:03.097Z,4.47
2019-05-03T02:15:33.022Z,5.67
2019-05-03T02:18:03.027Z,4.90
2019-05-03T02:20:32.984Z,4.43
2019-05-03T02:23:02.936Z,4.10
2019-05-03T02:25:32.945Z,4.97
2019-05-03T02:28:02.973Z,4.43
2019-05-03T02:30:33.438Z,4.50
2019-05-03T02:33:04.274Z,4.27
2019-05-03T02:35:34.489Z,5.27
2019-05-03T02:38:04.696Z,3.90
2019-05-03T02:40:34.738Z,4.27
2019-05-03T02:43:19.306Z,4.83
2019-05-03T02:46:16.669Z,3.97
2019-05-03T02:49:10.956Z,4.97
2019-05-03T02:51:40.883Z,5.00
2019-05-03T02:54:10.806Z,4.60
2019-05-03T02:56:40.659Z,5.60
2019-05-03T02:59:10.659Z,3.97
2019-05-03T03:01:40.662Z,4.63
2019-05-03T03:04:10.725Z,4.70
2019-05-03T03:06:40.829Z,3.93
2019-05-03T03:09:10.773Z,3.87
2019-05-03T03:11:40.963Z,4.40
2019-05-03T03:14:16.443Z,3.87
2019-05-03T03:16:45.556Z,4.60
2019-05-03T03:19:17.158Z,4.23
2019-05-03T03:21:48.463Z,4.87
2019-05-03T03:24:20.350Z,3.93
2019-05-03T03:26:50.569Z,4.27
2019-05-03T03:29:25.371Z,3.83
2019-05-03T03:32:18.315Z,4.40
2019-05-03T03:35:03.896Z,4.57
2019-05-03T03:37:35.052Z,4.20
2019-05-03T03:40:06.024Z,3.53
2019-05-03T03:42:36.326Z,3.37
2019-05-03T03:45:06.440Z,3.60
2019-05-03T03:47:38.341Z,3.30
2019-05-03T03:50:08.416Z,3.53
2019-05-03T03:52:38.542Z,3.50
2019-05-03T03:55:08.610Z,3.70
2019-05-03T03:57:38.526Z,3.77
2019-05-03T04:00:08.878Z,4.87
2019-05-03T04:02:39.346Z,6.03
2019-05-03T04:05:09.360Z,5.40
2019-05-03T04:07:40.400Z,3.50
2019-05-03T04:10:10.263Z,4.13
2019-05-03T04:12:41.910Z,5.00
2019-05-03T04:15:29.825Z,3.73
2019-05-03T04:18:26.279Z,6.37
2019-05-03T04:20:56.945Z,3.43
2019-05-03T04:23:26.950Z,3.90
2019-05-03T04:25:57.006Z,4.13
2019-05-03T04:28:27.132Z,4.70
2019-05-03T04:30:57.167Z,4.20
2019-05-03T04:33:27.313Z,3.67
2019-05-03T04:35:57.297Z,3.93
2019-05-03T04:38:27.331Z,4.20
2019-05-03T04:40:57.331Z,4.20
2019-05-03T04:43:27.263Z,4.30
2019-05-03T04:46:18.376Z,3.37
2019-05-03T04:48:48.395Z,4.27
2019-05-03T04:51:18.390Z,4.00
2019-05-03T04:53:57.499Z,3.50
2019-05-03T04:56:27.511Z,4.23
2019-05-03T04:58:57.439Z,4.30
2019-05-03T05:01:27.418Z,3.87
2019-05-03T05:03:57.352Z,3.60
2019-05-03T05:06:27.365Z,3.77
2019-05-03T05:08:57.301Z,3.73
2019-05-03T05:11:27.282Z,3.70
2019-05-03T05:13:57.433Z,3.60
2019-05-03T05:16:27.460Z,3.87
2019-05-03T05:19:01.598Z,3.83
2019-05-03T05:21:38.078Z,3.70
2019-05-03T05:24:08.043Z,3.70
2019-05-03T05:26:56.495Z,3.20
2019-05-03T05:29:28.714Z,3.37
2019-05-03T05:31:58.641Z,3.00
2019-05-03T05:34:28.682Z,3.00
2019-05-03T05:36:58.712Z,3.63
2019-05-03T05:39:28.667Z,3.83
2019-05-03T05:41:58.606Z,3.53
2019-05-03T05:44:28.543Z,3.70
2019-05-03T05:47:16.305Z,4.87
2019-05-03T05:50:07.698Z,3.33
2019-05-03T05:52:38.663Z,3.97
2019-05-03T05:55:39.727Z,3.23
2019-05-03T05:58:25.391Z,4.03
2019-05-03T06:00:57.294Z,3.20
2019-05-03T06:03:27.190Z,2.90
2019-05-03T06:05:58.713Z,4.07
2019-05-03T06:08:49.846Z,4.67
2019-05-03T06:11:34.802Z,2.97
2019-05-03T06:14:15.320Z,2.70
2019-05-03T06:16:55.389Z,3.10
2019-05-03T06:19:35.614Z,3.03
2019-05-03T06:22:39.834Z,2.90
2019-05-03T06:25:16.947Z,3.00
2019-05-03T06:27:46.880Z,2.67
2019-05-03T06:30:30.375Z,3.23
2019-05-03T06:33:00.306Z,3.17
2019-05-03T06:35:30.356Z,2.80
2019-05-03T06:38:00.290Z,3.07
2019-05-03T06:40:30.235Z,3.47
2019-05-03T06:43:08.477Z,2.87
2019-05-03T06:45:31.891Z,3.63
2019-05-03T06:48:01.820Z,3.17
2019-05-03T06:50:31.750Z,2.40
2019-05-03T06:53:05.409Z,2.57
2019-05-03T06:55:35.066Z,2.67
2019-05-03T06:58:05.180Z,2.40
2019-05-03T07:01:00.390Z,2.63
2019-05-03T07:03:38.577Z,2.93
2019-05-03T07:06:40.757Z,2.53
2019-05-03T07:09:28.568Z,2.70
2019-05-03T07:11:58.559Z,2.23
2019-05-03T07:14:28.594Z,3.00
2019-05-03T07:16:58.594Z,2.43
2019-05-03T07:19:29.612Z,2.40
2019-05-03T07:21:59.630Z,2.83
2019-05-03T07:24:29.587Z,2.30
2019-05-03T07:26:59.518Z,2.57
2019-05-03T07:29:29.442Z,2.40
2019-05-03T07:31:59.378Z,2.37
2019-05-03T07:34:29.350Z,2.60
2019-05-03T07:36:59.354Z,2.40
2019-05-03T07:39:29.346Z,2.60
2019-05-03T07:41:59.292Z,2.57
2019-05-03T07:44:29.372Z,2.73
2019-05-03T07:46:59.377Z,9.23
2019-05-03T07:49:29.366Z,4.60
2019-05-03T07:51:59.374Z,4.30
2019-05-03T07:54:29.408Z,4.67
2019-05-03T07:57:05.929Z,3.97
2019-05-03T07:59:56.070Z,2.07
2019-05-03T08:02:27.492Z,3.40
2019-05-03T08:04:57.672Z,3.17
2019-05-03T08:07:27.582Z,4.90
2019-05-03T08:09:57.519Z,6.23
2019-05-03T08:12:27.568Z,4.93
2019-05-03T08:14:57.598Z,4.20
2019-05-03T08:17:28.511Z,7.47
2019-05-03T08:19:58.557Z,3.67
2019-05-03T08:22:28.603Z,9.23
2019-05-03T08:24:59.601Z,7.40
2019-05-03T08:27:29.628Z,10.37
2019-05-03T08:29:59.633Z,9.43
2019-05-03T08:32:44.549Z,11.13
2019-05-03T08:35:39.452Z,4.20
2019-05-03T08:38:09.457Z,6.53
2019-05-03T08:40:45.556Z,6.47
2019-05-03T08:43:16.702Z,10.03
2019-05-03T08:45:46.709Z,9.07
2019-05-03T08:48:17.694Z,15.07
2019-05-03T08:50:47.702Z,6.77
2019-05-03T08:53:17.637Z,14.03
2019-05-03T08:55:47.574Z,7.83
2019-05-03T08:58:17.436Z,6.27
2019-05-03T09:00:48.329Z,12.13
2019-05-03T09:03:18.289Z,47.37
2019-05-03T09:05:49.492Z,43.57
2019-05-03T09:08:19.478Z,45.50
2019-05-03T09:11:09.011Z,44.93
2019-05-03T09:14:00.710Z,43.47
2019-05-03T09:16:30.829Z,32.30
2019-05-03T09:19:00.870Z,33.10
2019-05-03T09:21:30.750Z,31.70
2019-05-03T09:24:00.747Z,34.33
2019-05-03T09:26:30.702Z,28.03
2019-05-03T09:29:00.630Z,31.67
2019-05-03T09:31:30.634Z,26.40
2019-05-03T09:34:00.574Z,26.13
2019-05-03T09:36:30.581Z,26.13
2019-05-03T09:39:00.535Z,20.50
2019-05-03T09:41:32.137Z,25.90
2019-05-03T09:44:02.183Z,26.53
2019-05-03T09:46:32.241Z,39.43
2019-05-03T09:49:11.062Z,25.87
2019-05-03T09:51:35.012Z,28.47
2019-05-03T09:54:12.018Z,21.90
2019-05-03T09:56:58.609Z,18.30
2019-05-03T09:59:29.492Z,19.03
2019-05-03T10:02:00.872Z,24.47
2019-05-03T10:04:30.937Z,24.73
2019-05-03T10:07:00.980Z,29.03
2019-05-03T10:09:31.030Z,25.37
2019-05-03T10:12:01.746Z,28.33
2019-05-03T10:14:31.752Z,31.33
2019-05-03T10:17:11.056Z,27.07
2019-05-03T10:19:41.049Z,28.07
2019-05-03T10:24:57.256Z,22.23
2019-05-03T10:27:28.815Z,24.57
2019-05-03T10:30:09.688Z,22.77
2019-05-03T10:32:44.853Z,32.73
2019-05-03T10:35:15.342Z,26.73
2019-05-03T10:37:45.468Z,26.10
2019-05-03T10:40:24.506Z,26.57
2019-05-03T10:42:55.305Z,28.57
2019-05-03T10:45:27.915Z,25.70
2019-05-03T10:47:57.180Z,26.77
2019-05-03T10:50:27.194Z,27.63
2019-05-03T10:53:05.640Z,32.23
2019-05-03T10:55:35.896Z,22.47
2019-05-03T10:58:15.988Z,32.17
2019-05-03T11:00:52.911Z,22.80
2019-05-03T11:03:19.643Z,25.83
2019-05-03T11:05:49.618Z,21.63
2019-05-03T11:08:19.507Z,24.30
2019-05-03T11:10:49.529Z,21.30
2019-05-03T11:13:19.819Z,34.10
2019-05-03T11:15:49.950Z,19.53
2019-05-03T11:18:19.962Z,24.77
2019-05-03T11:20:49.903Z,29.70
2019-05-03T11:23:19.858Z,24.80
2019-05-03T11:25:49.842Z,23.53
2019-05-03T11:28:25.329Z,26.53
2019-05-03T11:31:01.834Z,20.43
2019-05-03T11:33:36.978Z,18.70
2019-05-03T11:36:31.746Z,24.27
2019-05-03T11:39:01.142Z,19.30
2019-05-03T11:41:35.827Z,21.33
2019-05-03T11:44:27.566Z,20.80
2019-05-03T11:46:58.498Z,25.23
2019-05-03T11:49:29.643Z,26.83
2019-05-03T11:51:59.523Z,19.27
2019-05-03T11:54:30.465Z,22.60
2019-05-03T11:57:02.086Z,19.93
2019-05-03T11:59:32.023Z,27.97
2019-05-03T12:02:18.794Z,21.23
2019-05-03T12:04:48.647Z,19.17
2019-05-03T12:07:38.987Z,20.07
2019-05-03T12:10:13.828Z,27.10
2019-05-03T12:12:37.233Z,24.63
2019-05-03T12:15:07.210Z,18.97
2019-05-03T12:17:51.053Z,16.50
2019-05-03T12:20:12.103Z,14.17
2019-05-03T12:22:43.030Z,17.70
2019-05-03T12:25:16.296Z,17.90
2019-05-03T12:27:45.167Z,15.43
2019-05-03T12:30:15.375Z,21.77
2019-05-03T12:32:45.498Z,19.20
2019-05-03T12:35:15.516Z,16.07
2019-05-03T12:37:45.514Z,19.50
2019-05-03T12:40:15.721Z,23.50
2019-05-03T12:42:45.679Z,28.17
2019-05-03T12:45:15.760Z,25.13
2019-05-03T12:47:45.735Z,18.47
2019-05-03T12:50:15.801Z,21.27
2019-05-03T12:52:50.480Z,15.07
2019-05-03T12:55:17.446Z,21.47
2019-05-03T12:57:47.481Z,18.83
2019-05-03T13:00:35.270Z,20.93
2019-05-03T13:03:11.758Z,15.93
2019-05-03T13:05:42.165Z,27.37
2019-05-03T13:08:35.763Z,15.70
2019-05-03T13:11:06.136Z,19.33
2019-05-03T13:13:39.226Z,13.87
2019-05-03T13:16:12.712Z,15.40
2019-05-03T13:18:45.801Z,14.97
2019-05-03T13:21:15.455Z,17.03
2019-05-03T13:23:45.449Z,15.77
2019-05-03T13:26:15.418Z,18.47
2019-05-03T13:28:45.800Z,19.33
2019-05-03T13:31:16.216Z,13.63
2019-05-03T13:33:46.376Z,12.70
2019-05-03T13:36:16.352Z,26.23
2019-05-03T13:38:46.359Z,22.67
2019-05-03T13:41:16.394Z,13.90
2019-05-03T13:43:46.398Z,15.07
2019-05-03T13:46:16.364Z,13.70
2019-05-03T13:48:49.060Z,14.23
2019-05-03T13:51:17.961Z,14.77
2019-05-03T13:53:47.906Z,14.60
2019-05-03T13:56:17.891Z,29.93
2019-05-03T13:58:47.836Z,17.80
2019-05-03T14:01:17.895Z,11.93
2019-05-03T14:03:47.853Z,12.20
2019-05-03T14:06:17.790Z,12.50
2019-05-03T14:08:47.739Z,14.83
2019-05-03T14:11:17.981Z,15.77
2019-05-03T14:13:47.995Z,12.90
2019-05-03T14:16:18.021Z,9.97
2019-05-03T14:18:49.531Z,13.23
2019-05-03T14:21:28.037Z,12.00
2019-05-03T14:24:10.443Z,11.33
2019-05-03T14:26:41.276Z,10.10
2019-05-03T14:29:11.361Z,12.97
2019-05-03T14:31:41.350Z,10.13
2019-05-03T14:34:11.305Z,15.80
2019-05-03T14:36:41.358Z,12.13
2019-05-03T14:39:11.359Z,15.70
2019-05-03T14:41:41.431Z,15.97
2019-05-03T14:44:14.539Z,15.83
2019-05-03T14:46:43.090Z,18.00
2019-05-03T14:49:14.819Z,14.13
2019-05-03T14:51:45.554Z,12.43
2019-05-03T14:54:15.988Z,16.20
2019-05-03T14:56:55.834Z,17.10
2019-05-03T14:59:47.846Z,16.73
2019-05-03T15:02:43.702Z,23.33
2019-05-03T15:05:07.192Z,17.40
2019-05-03T15:07:37.213Z,17.13
2019-05-03T15:10:07.234Z,20.50
2019-05-03T15:12:37.434Z,21.90
2019-05-03T15:15:07.400Z,33.67
2019-05-03T15:17:37.360Z,28.07
2019-05-03T15:20:07.398Z,27.63
2019-05-03T15:22:37.305Z,34.10
2019-05-03T15:25:07.915Z,27.37
2019-05-03T15:27:37.864Z,28.53
2019-05-03T15:30:08.006Z,27.40
2019-05-03T15:32:37.936Z,34.13
2019-05-03T15:35:08.077Z,34.20
2019-05-03T15:37:38.018Z,35.10
2019-05-03T15:40:08.256Z,26.77
2019-05-03T15:42:40.287Z,41.37
2019-05-03T15:45:39.596Z,32.87
2019-05-03T15:48:21.345Z,35.43
2019-05-03T15:50:51.297Z,29.97
2019-05-03T15:53:21.239Z,30.00
2019-05-03T15:55:51.097Z,30.20
2019-05-03T15:58:21.059Z,26.77
2019-05-03T16:00:51.000Z,29.50
2019-05-03T16:03:20.979Z,24.80
2019-05-03T16:05:50.881Z,22.07
2019-05-03T16:08:20.895Z,23.63
2019-05-03T16:10:50.887Z,29.37
2019-05-03T16:13:21.009Z,34.83
2019-05-03T16:15:50.950Z,36.90
2019-05-03T16:18:20.910Z,35.67
2019-05-03T16:20:50.849Z,30.93
2019-05-03T16:23:20.964Z,30.70
2019-05-03T16:25:50.910Z,29.47
2019-05-03T16:28:26.981Z,34.57
2019-05-03T16:31:07.207Z,30.27
2019-05-03T16:33:37.319Z,28.50
2019-05-03T16:36:07.338Z,21.23
2019-05-03T16:38:37.386Z,24.33
2019-05-03T16:41:07.322Z,21.67
2019-05-03T16:43:37.310Z,28.23
2019-05-03T16:46:07.279Z,26.17
2019-05-03T16:48:37.302Z,23.80
2019-05-03T16:51:07.309Z,24.03
2019-05-03T16:53:37.362Z,22.30
2019-05-03T16:56:07.329Z,22.90
2019-05-03T16:58:37.362Z,19.63
2019-05-03T17:01:08.399Z,23.10
2019-05-03T17:03:46.992Z,18.13
2019-05-03T17:06:41.859Z,14.63
2019-05-03T17:09:35.224Z,21.43
2019-05-03T17:12:07.071Z,17.50
2019-05-03T17:14:37.022Z,17.23
2019-05-03T17:17:07.308Z,15.57
2019-05-03T17:19:37.573Z,17.00
2019-05-03T17:22:07.627Z,14.93
2019-05-03T17:24:37.716Z,13.47
2019-05-03T17:27:07.645Z,16.83
2019-05-03T17:29:37.704Z,17.97
2019-05-03T17:32:07.801Z,16.87
2019-05-03T17:34:37.711Z,14.43
2019-05-03T17:37:07.685Z,18.17
2019-05-03T17:39:47.849Z,13.07
2019-05-03T17:42:45.092Z,17.83
2019-05-03T17:45:17.171Z,14.07
2019-05-03T17:47:47.102Z,13.47
2019-05-03T17:50:16.974Z,13.67
2019-05-03T17:52:54.568Z,14.17
2019-05-03T17:55:35.225Z,14.90
2019-05-03T17:58:17.220Z,13.07
2019-05-03T18:00:59.783Z,10.50
2019-05-03T18:03:32.182Z,15.70
2019-05-03T18:06:25.497Z,14.23
2019-05-03T18:09:14.968Z,13.57
2019-05-03T18:11:47.514Z,9.43
2019-05-03T18:14:17.493Z,15.33
2019-05-03T18:16:47.432Z,11.17
2019-05-03T18:19:17.459Z,12.27
2019-05-03T18:21:47.382Z,10.73
2019-05-03T18:24:17.347Z,12.03
2019-05-03T18:26:47.334Z,11.83
2019-05-03T18:29:17.297Z,12.00
2019-05-03T18:31:47.255Z,12.73
2019-05-03T18:34:19.908Z,9.20
2019-05-03T18:36:48.976Z,10.63
2019-05-03T18:39:19.004Z,9.47
2019-05-03T18:41:48.993Z,11.63
2019-05-03T18:44:34.686Z,11.93
2019-05-03T18:47:07.531Z,13.00
2019-05-03T18:49:37.606Z,7.77
2019-05-03T18:52:07.552Z,9.43
2019-05-03T18:54:37.882Z,9.30
2019-05-03T18:57:07.826Z,9.53
2019-05-03T18:59:40.997Z,8.93
2019-05-03T19:02:11.003Z,8.17
2019-05-03T19:04:48.087Z,12.17
2019-05-03T19:07:35.923Z,12.07
2019-05-03T19:10:31.485Z,19.17
2019-05-03T19:13:14.848Z,7.67
2019-05-03T19:15:44.649Z,14.80
2019-05-03T19:18:25.641Z,11.63
2019-05-03T19:20:55.624Z,13.40
2019-05-03T19:23:25.569Z,11.43
2019-05-03T19:25:55.495Z,12.27
2019-05-03T19:28:25.432Z,14.73
2019-05-03T19:30:55.614Z,13.83
2019-05-03T19:33:25.630Z,9.03
2019-05-03T19:35:55.678Z,15.97
2019-05-03T19:38:25.662Z,12.87
2019-05-03T19:40:55.610Z,42.87
2019-05-03T19:43:27.128Z,24.70
2019-05-03T19:45:57.340Z,22.17
2019-05-03T19:48:27.217Z,25.60
2019-05-03T19:50:57.273Z,19.80
2019-05-03T19:53:49.366Z,22.60
2019-05-03T19:56:21.636Z,20.57
2019-05-03T19:58:56.595Z,20.87
2019-05-03T20:01:57.822Z,19.77
2019-05-03T20:04:35.867Z,22.93
2019-05-03T20:07:25.060Z,19.27
2019-05-03T20:09:54.880Z,25.10
2019-05-03T20:12:24.913Z,25.27
2019-05-03T20:14:54.860Z,22.37
2019-05-03T20:17:24.849Z,20.30
2019-05-03T20:19:54.774Z,21.20
2019-05-03T20:22:24.710Z,29.77
2019-05-03T20:24:55.272Z,23.77
2019-05-03T20:27:25.453Z,21.43
2019-05-03T20:29:55.543Z,21.23
2019-05-03T20:32:25.616Z,22.93
2019-05-03T20:34:55.731Z,25.40
2019-05-03T20:37:25.914Z,21.93
2019-05-03T20:39:55.966Z,24.40
2019-05-03T20:42:44.849Z,23.50
2019-05-03T20:45:20.676Z,20.47
2019-05-03T20:47:54.783Z,25.60
2019-05-03T20:50:24.981Z,20.90
2019-05-03T20:52:55.121Z,24.30
2019-05-03T20:55:25.631Z,23.50
2019-05-03T20:57:55.887Z,23.37
2019-05-03T21:00:26.734Z,19.73
2019-05-03T21:02:57.438Z,26.73
2019-05-03T21:05:31.199Z,20.57
2019-05-03T21:07:59.276Z,20.60
2019-05-03T21:10:29.210Z,18.33
2019-05-03T21:12:59.198Z,16.20
2019-05-03T21:15:38.758Z,20.97
2019-05-03T21:18:30.423Z,20.03
2019-05-03T21:21:08.245Z,23.80
2019-05-03T21:23:41.643Z,18.23
2019-05-03T21:26:13.525Z,17.57
2019-05-03T21:28:44.948Z,19.83
2019-05-03T21:31:15.622Z,23.93
2019-05-03T21:33:45.778Z,21.20
2019-05-03T21:36:15.732Z,21.50
2019-05-03T21:38:45.670Z,21.40
2019-05-03T21:41:15.791Z,20.20
2019-05-03T21:43:45.875Z,24.87
2019-05-03T21:46:21.585Z,23.20
2019-05-03T21:48:58.909Z,23.53
2019-05-03T21:51:28.913Z,21.57
2019-05-03T21:53:58.852Z,22.57
2019-05-03T21:56:28.810Z,21.33
2019-05-03T21:58:58.678Z,21.80
2019-05-03T22:01:28.652Z,17.87
2019-05-03T22:03:58.657Z,21.33
2019-05-03T22:06:28.649Z,19.70
2019-05-03T22:08:58.623Z,18.60
2019-05-03T22:11:28.594Z,18.77
2019-05-03T22:14:01.699Z,19.83
2019-05-03T22:16:42.237Z,19.47
2019-05-03T22:19:12.296Z,19.97
2019-05-03T22:21:55.326Z,20.70
2019-05-03T22:24:55.403Z,19.60
2019-05-03T22:27:29.934Z,19.87
2019-05-03T22:29:59.902Z,18.77
2019-05-03T22:32:29.872Z,22.80
2019-05-03T22:34:59.778Z,17.23
2019-05-03T22:37:29.710Z,18.60
2019-05-03T22:39:59.734Z,18.27
2019-05-03T22:42:29.665Z,19.63
2019-05-03T22:44:59.558Z,17.30
2019-05-03T22:47:29.598Z,18.70
2019-05-03T22:49:59.566Z,17.97
2019-05-03T22:52:29.545Z,18.67
2019-05-03T22:54:59.490Z,17.70
2019-05-03T22:57:29.482Z,16.60
2019-05-03T22:59:59.440Z,16.67
2019-05-03T23:02:29.393Z,17.50
2019-05-03T23:04:59.338Z,18.77
2019-05-03T23:07:29.350Z,18.80
2019-05-03T23:09:59.397Z,17.23
2019-05-03T23:12:29.279Z,18.17
2019-05-03T23:14:59.135Z,18.03
2019-05-03T23:17:29.065Z,17.00
2019-05-03T23:20:27.721Z,16.73
2019-05-03T23:22:57.649Z,16.80
2019-05-03T23:25:27.581Z,14.60
2019-05-03T23:27:57.551Z,16.70
2019-05-03T23:30:27.574Z,16.13
2019-05-03T23:32:57.512Z,16.77
2019-05-03T23:35:27.454Z,15.63
2019-05-03T23:37:57.379Z,14.83
2019-05-03T23:40:27.236Z,15.93
2019-05-03T23:42:57.198Z,16.43
2019-05-03T23:45:27.138Z,16.17
2019-05-03T23:47:57.085Z,14.83
2019-05-03T23:50:27.101Z,16.93
2019-05-03T23:52:57.092Z,14.60
2019-05-03T23:55:45.989Z,15.37
2019-05-03T23:58:15.984Z,15.57
